sensor_id;sensor_type;location;lat;lon;timestamp;P1;durP1;ratioP1;P2;durP2;ratioP2
83595;SDS011;73564;45.026;38.952;2023-10-31T00:01:51;24.10;;;10.65;;
83595;SDS011;73564;45.026;38.952;2023-10-31T00:04:17;22.50;;;9.00;;
83595;SDS011;73564;45.026;38.952;2023-10-31T00:06:43;18.48;;;7.93;;
83595;SDS011;73564;45.026;38.952;2023-10-31T00:09:09;21.00;;;7.68;;
83595;SDS011;73564;45.026;38.952;2023-10-31T00:11:36;21.70;;;7.78;;
83595;SDS011;73564;45.026;38.952;2023-10-31T00:14:02;21.10;;;8.93;;
83595;SDS011;73564;45.026;38.952;2023-10-31T00:16:28;19.38;;;9.07;;
83595;SDS011;73564;45.026;38.952;2023-10-31T00:18:54;21.35;;;8.13;;
83595;SDS011;73564;45.026;38.952;2023-10-31T00:21:20;18.05;;;7.90;;
83595;SDS011;73564;45.026;38.952;2023-10-31T00:23:47;19.55;;;7.88;;
83595;SDS011;73564;45.026;38.952;2023-10-31T00:26:14;20.10;;;8.15;;
83595;SDS011;73564;45.026;38.952;2023-10-31T00:28:47;15.55;;;6.65;;
83595;SDS011;73564;45.026;38.952;2023-10-31T00:31:13;16.77;;;6.90;;
83595;SDS011;73564;45.026;38.952;2023-10-31T00:33:39;12.45;;;6.93;;
83595;SDS011;73564;45.026;38.952;2023-10-31T00:36:05;21.35;;;7.22;;
83595;SDS011;73564;45.026;38.952;2023-10-31T00:38:32;13.77;;;7.32;;
83595;SDS011;73564;45.026;38.952;2023-10-31T00:40:58;12.85;;;6.93;;
83595;SDS011;73564;45.026;38.952;2023-10-31T00:43:24;15.63;;;7.45;;
83595;SDS011;73564;45.026;38.952;2023-10-31T00:45:51;15.00;;;7.32;;
83595;SDS011;73564;45.026;38.952;2023-10-31T00:48:16;16.85;;;7.35;;
83595;SDS011;73564;45.026;38.952;2023-10-31T00:50:43;12.60;;;6.07;;
83595;SDS011;73564;45.026;38.952;2023-10-31T00:55:35;11.57;;;6.15;;
83595;SDS011;73564;45.026;38.952;2023-10-31T00:58:01;14.27;;;6.00;;
83595;SDS011;73564;45.026;38.952;2023-10-31T01:00:27;25.20;;;8.23;;
83595;SDS011;73564;45.026;38.952;2023-10-31T01:02:53;17.25;;;6.43;;
83595;SDS011;73564;45.026;38.952;2023-10-31T01:05:19;13.23;;;6.03;;
83595;SDS011;73564;45.026;38.952;2023-10-31T01:07:44;18.45;;;7.30;;
83595;SDS011;73564;45.026;38.952;2023-10-31T01:10:10;15.40;;;7.50;;
83595;SDS011;73564;45.026;38.952;2023-10-31T01:12:36;21.38;;;8.88;;
83595;SDS011;73564;45.026;38.952;2023-10-31T01:15:02;18.52;;;6.95;;
83595;SDS011;73564;45.026;38.952;2023-10-31T01:17:28;19.98;;;6.95;;
83595;SDS011;73564;45.026;38.952;2023-10-31T01:19:55;20.17;;;7.75;;
83595;SDS011;73564;45.026;38.952;2023-10-31T01:22:20;15.98;;;8.38;;
83595;SDS011;73564;45.026;38.952;2023-10-31T01:24:46;23.63;;;8.77;;
83595;SDS011;73564;45.026;38.952;2023-10-31T01:27:13;22.42;;;7.90;;
83595;SDS011;73564;45.026;38.952;2023-10-31T01:29:38;23.42;;;8.25;;
83595;SDS011;73564;45.026;38.952;2023-10-31T01:32:04;18.63;;;7.22;;
83595;SDS011;73564;45.026;38.952;2023-10-31T01:34:30;20.92;;;8.30;;
83595;SDS011;73564;45.026;38.952;2023-10-31T01:36:56;19.30;;;8.07;;
83595;SDS011;73564;45.026;38.952;2023-10-31T01:39:22;20.02;;;8.52;;
83595;SDS011;73564;45.026;38.952;2023-10-31T01:41:48;26.75;;;8.50;;
83595;SDS011;73564;45.026;38.952;2023-10-31T01:44:14;23.13;;;8.38;;
83595;SDS011;73564;45.026;38.952;2023-10-31T01:46:40;21.50;;;9.10;;
83595;SDS011;73564;45.026;38.952;2023-10-31T01:49:06;21.20;;;7.65;;
83595;SDS011;73564;45.026;38.952;2023-10-31T01:51:32;20.45;;;9.07;;
83595;SDS011;73564;45.026;38.952;2023-10-31T01:53:58;21.70;;;7.70;;
83595;SDS011;73564;45.026;38.952;2023-10-31T01:56:24;22.67;;;8.77;;
83595;SDS011;73564;45.026;38.952;2023-10-31T01:58:50;18.38;;;7.60;;
83595;SDS011;73564;45.026;38.952;2023-10-31T02:01:18;17.08;;;7.68;;
83595;SDS011;73564;45.026;38.952;2023-10-31T02:03:44;15.57;;;7.13;;
83595;SDS011;73564;45.026;38.952;2023-10-31T02:06:10;22.23;;;7.90;;
83595;SDS011;73564;45.026;38.952;2023-10-31T02:08:36;23.05;;;8.13;;
83595;SDS011;73564;45.026;38.952;2023-10-31T02:11:02;22.27;;;7.75;;
83595;SDS011;73564;45.026;38.952;2023-10-31T02:13:29;20.50;;;7.30;;
83595;SDS011;73564;45.026;38.952;2023-10-31T02:15:55;25.65;;;7.65;;
83595;SDS011;73564;45.026;38.952;2023-10-31T02:18:21;21.17;;;8.00;;
83595;SDS011;73564;45.026;38.952;2023-10-31T02:20:47;20.25;;;7.18;;
83595;SDS011;73564;45.026;38.952;2023-10-31T02:23:16;20.77;;;7.93;;
83595;SDS011;73564;45.026;38.952;2023-10-31T02:25:42;20.20;;;8.10;;
83595;SDS011;73564;45.026;38.952;2023-10-31T02:28:08;20.55;;;7.55;;
83595;SDS011;73564;45.026;38.952;2023-10-31T02:30:34;20.90;;;8.60;;
83595;SDS011;73564;45.026;38.952;2023-10-31T02:33:01;20.40;;;7.18;;
83595;SDS011;73564;45.026;38.952;2023-10-31T02:35:28;18.30;;;7.85;;
83595;SDS011;73564;45.026;38.952;2023-10-31T02:37:54;14.77;;;6.60;;
83595;SDS011;73564;45.026;38.952;2023-10-31T02:40:19;22.23;;;7.32;;
83595;SDS011;73564;45.026;38.952;2023-10-31T02:42:45;20.75;;;7.15;;
83595;SDS011;73564;45.026;38.952;2023-10-31T02:45:11;15.35;;;7.18;;
83595;SDS011;73564;45.026;38.952;2023-10-31T02:47:37;15.93;;;6.65;;
83595;SDS011;73564;45.026;38.952;2023-10-31T02:50:03;19.80;;;7.47;;
83595;SDS011;73564;45.026;38.952;2023-10-31T02:52:29;14.55;;;5.97;;
83595;SDS011;73564;45.026;38.952;2023-10-31T02:54:56;16.55;;;6.78;;
83595;SDS011;73564;45.026;38.952;2023-10-31T02:57:22;18.52;;;7.10;;
83595;SDS011;73564;45.026;38.952;2023-10-31T02:59:48;17.33;;;6.40;;
83595;SDS011;73564;45.026;38.952;2023-10-31T03:02:14;12.88;;;6.18;;
83595;SDS011;73564;45.026;38.952;2023-10-31T03:04:39;13.98;;;5.70;;
83595;SDS011;73564;45.026;38.952;2023-10-31T03:07:06;17.85;;;5.90;;
83595;SDS011;73564;45.026;38.952;2023-10-31T03:09:32;14.90;;;6.05;;
83595;SDS011;73564;45.026;38.952;2023-10-31T03:11:58;12.43;;;5.68;;
83595;SDS011;73564;45.026;38.952;2023-10-31T03:14:24;14.77;;;5.40;;
83595;SDS011;73564;45.026;38.952;2023-10-31T03:16:50;12.40;;;5.47;;
83595;SDS011;73564;45.026;38.952;2023-10-31T03:19:16;12.93;;;5.38;;
83595;SDS011;73564;45.026;38.952;2023-10-31T03:21:42;12.52;;;5.88;;
83595;SDS011;73564;45.026;38.952;2023-10-31T03:24:07;11.93;;;5.57;;
83595;SDS011;73564;45.026;38.952;2023-10-31T03:26:33;10.30;;;5.00;;
83595;SDS011;73564;45.026;38.952;2023-10-31T03:28:59;13.30;;;5.00;;
83595;SDS011;73564;45.026;38.952;2023-10-31T03:31:25;11.63;;;5.45;;
83595;SDS011;73564;45.026;38.952;2023-10-31T03:33:51;12.52;;;5.10;;
83595;SDS011;73564;45.026;38.952;2023-10-31T03:36:17;10.98;;;4.60;;
83595;SDS011;73564;45.026;38.952;2023-10-31T03:38:43;10.77;;;4.97;;
83595;SDS011;73564;45.026;38.952;2023-10-31T03:41:08;11.25;;;5.03;;
83595;SDS011;73564;45.026;38.952;2023-10-31T03:43:34;8.02;;;4.70;;
83595;SDS011;73564;45.026;38.952;2023-10-31T03:46:00;10.45;;;4.47;;
83595;SDS011;73564;45.026;38.952;2023-10-31T03:48:26;12.73;;;5.03;;
83595;SDS011;73564;45.026;38.952;2023-10-31T03:50:52;12.80;;;4.55;;
83595;SDS011;73564;45.026;38.952;2023-10-31T03:53:18;11.35;;;4.28;;
83595;SDS011;73564;45.026;38.952;2023-10-31T03:55:44;10.95;;;4.68;;
83595;SDS011;73564;45.026;38.952;2023-10-31T03:58:10;11.52;;;4.53;;
83595;SDS011;73564;45.026;38.952;2023-10-31T04:00:36;10.18;;;4.45;;
83595;SDS011;73564;45.026;38.952;2023-10-31T04:03:04;15.48;;;4.22;;
83595;SDS011;73564;45.026;38.952;2023-10-31T04:05:29;14.35;;;5.88;;
83595;SDS011;73564;45.026;38.952;2023-10-31T04:07:55;15.40;;;4.90;;
83595;SDS011;73564;45.026;38.952;2023-10-31T04:10:21;17.20;;;5.47;;
83595;SDS011;73564;45.026;38.952;2023-10-31T04:12:47;11.88;;;4.60;;
83595;SDS011;73564;45.026;38.952;2023-10-31T04:15:13;8.48;;;4.00;;
83595;SDS011;73564;45.026;38.952;2023-10-31T04:17:39;11.50;;;4.60;;
83595;SDS011;73564;45.026;38.952;2023-10-31T04:20:05;10.07;;;4.93;;
83595;SDS011;73564;45.026;38.952;2023-10-31T04:22:31;12.55;;;5.10;;
83595;SDS011;73564;45.026;38.952;2023-10-31T04:24:57;10.65;;;4.45;;
83595;SDS011;73564;45.026;38.952;2023-10-31T04:27:23;12.65;;;4.78;;
83595;SDS011;73564;45.026;38.952;2023-10-31T04:29:49;12.35;;;4.15;;
83595;SDS011;73564;45.026;38.952;2023-10-31T04:32:14;13.57;;;5.35;;
83595;SDS011;73564;45.026;38.952;2023-10-31T04:34:40;12.98;;;5.15;;
83595;SDS011;73564;45.026;38.952;2023-10-31T04:37:06;11.35;;;3.85;;
83595;SDS011;73564;45.026;38.952;2023-10-31T04:39:32;10.43;;;4.35;;
83595;SDS011;73564;45.026;38.952;2023-10-31T04:41:57;19.10;;;6.35;;
83595;SDS011;73564;45.026;38.952;2023-10-31T04:44:23;20.10;;;6.28;;
83595;SDS011;73564;45.026;38.952;2023-10-31T04:46:49;20.35;;;7.22;;
83595;SDS011;73564;45.026;38.952;2023-10-31T04:49:14;16.90;;;5.10;;
83595;SDS011;73564;45.026;38.952;2023-10-31T04:51:40;12.15;;;4.93;;
83595;SDS011;73564;45.026;38.952;2023-10-31T04:54:06;10.00;;;4.90;;
83595;SDS011;73564;45.026;38.952;2023-10-31T04:56:32;22.92;;;5.60;;
83595;SDS011;73564;45.026;38.952;2023-10-31T04:58:58;9.80;;;4.63;;
83595;SDS011;73564;45.026;38.952;2023-10-31T05:01:24;12.57;;;4.32;;
83595;SDS011;73564;45.026;38.952;2023-10-31T05:03:50;12.07;;;4.40;;
83595;SDS011;73564;45.026;38.952;2023-10-31T05:06:19;9.68;;;3.75;;
83595;SDS011;73564;45.026;38.952;2023-10-31T05:08:45;10.73;;;4.53;;
83595;SDS011;73564;45.026;38.952;2023-10-31T05:11:11;19.80;;;7.25;;
83595;SDS011;73564;45.026;38.952;2023-10-31T05:13:38;29.33;;;9.27;;
83595;SDS011;73564;45.026;38.952;2023-10-31T05:16:04;19.95;;;5.57;;
83595;SDS011;73564;45.026;38.952;2023-10-31T05:18:29;8.85;;;3.83;;
83595;SDS011;73564;45.026;38.952;2023-10-31T05:20:55;10.48;;;4.55;;
83595;SDS011;73564;45.026;38.952;2023-10-31T05:23:21;11.90;;;4.47;;
83595;SDS011;73564;45.026;38.952;2023-10-31T05:25:46;10.88;;;5.13;;
83595;SDS011;73564;45.026;38.952;2023-10-31T05:28:12;10.63;;;4.05;;
83595;SDS011;73564;45.026;38.952;2023-10-31T05:30:38;10.82;;;4.35;;
83595;SDS011;73564;45.026;38.952;2023-10-31T05:33:04;12.90;;;5.05;;
83595;SDS011;73564;45.026;38.952;2023-10-31T05:35:29;13.38;;;4.97;;
83595;SDS011;73564;45.026;38.952;2023-10-31T05:37:55;10.68;;;4.43;;
83595;SDS011;73564;45.026;38.952;2023-10-31T05:40:21;10.50;;;4.90;;
83595;SDS011;73564;45.026;38.952;2023-10-31T05:42:50;9.65;;;4.45;;
83595;SDS011;73564;45.026;38.952;2023-10-31T05:45:16;9.75;;;4.35;;
83595;SDS011;73564;45.026;38.952;2023-10-31T05:47:42;10.52;;;5.18;;
83595;SDS011;73564;45.026;38.952;2023-10-31T05:50:07;10.35;;;4.70;;
83595;SDS011;73564;45.026;38.952;2023-10-31T05:52:33;10.15;;;4.53;;
83595;SDS011;73564;45.026;38.952;2023-10-31T05:54:59;9.02;;;4.28;;
83595;SDS011;73564;45.026;38.952;2023-10-31T05:57:25;6.82;;;4.60;;
83595;SDS011;73564;45.026;38.952;2023-10-31T05:59:51;13.50;;;4.43;;
83595;SDS011;73564;45.026;38.952;2023-10-31T06:02:16;14.77;;;4.93;;
83595;SDS011;73564;45.026;38.952;2023-10-31T06:04:42;8.95;;;4.30;;
83595;SDS011;73564;45.026;38.952;2023-10-31T06:07:10;11.50;;;4.93;;
83595;SDS011;73564;45.026;38.952;2023-10-31T06:09:36;19.08;;;4.70;;
83595;SDS011;73564;45.026;38.952;2023-10-31T06:12:02;11.52;;;5.05;;
83595;SDS011;73564;45.026;38.952;2023-10-31T06:14:28;7.88;;;4.63;;
83595;SDS011;73564;45.026;38.952;2023-10-31T06:16:53;11.80;;;5.03;;
83595;SDS011;73564;45.026;38.952;2023-10-31T06:19:20;10.30;;;4.38;;
83595;SDS011;73564;45.026;38.952;2023-10-31T06:21:46;13.95;;;4.50;;
83595;SDS011;73564;45.026;38.952;2023-10-31T06:24:11;11.32;;;4.07;;
83595;SDS011;73564;45.026;38.952;2023-10-31T06:26:37;10.57;;;4.35;;
83595;SDS011;73564;45.026;38.952;2023-10-31T06:29:04;9.27;;;4.07;;
83595;SDS011;73564;45.026;38.952;2023-10-31T06:31:30;8.88;;;4.60;;
83595;SDS011;73564;45.026;38.952;2023-10-31T06:33:56;11.23;;;4.72;;
83595;SDS011;73564;45.026;38.952;2023-10-31T06:36:21;15.82;;;5.05;;
83595;SDS011;73564;45.026;38.952;2023-10-31T06:38:47;12.95;;;4.47;;
83595;SDS011;73564;45.026;38.952;2023-10-31T06:41:13;12.15;;;4.45;;
83595;SDS011;73564;45.026;38.952;2023-10-31T06:43:39;11.00;;;4.53;;
83595;SDS011;73564;45.026;38.952;2023-10-31T06:46:04;9.45;;;4.32;;
83595;SDS011;73564;45.026;38.952;2023-10-31T06:48:31;14.30;;;4.65;;
83595;SDS011;73564;45.026;38.952;2023-10-31T06:50:56;10.30;;;4.72;;
83595;SDS011;73564;45.026;38.952;2023-10-31T06:53:22;9.50;;;4.07;;
83595;SDS011;73564;45.026;38.952;2023-10-31T06:55:48;17.33;;;4.97;;
83595;SDS011;73564;45.026;38.952;2023-10-31T06:58:14;12.40;;;4.57;;
83595;SDS011;73564;45.026;38.952;2023-10-31T07:00:40;14.60;;;4.53;;
83595;SDS011;73564;45.026;38.952;2023-10-31T07:03:05;9.10;;;4.90;;
83595;SDS011;73564;45.026;38.952;2023-10-31T07:05:36;14.02;;;6.18;;
83595;SDS011;73564;45.026;38.952;2023-10-31T07:08:02;14.85;;;7.32;;
83595;SDS011;73564;45.026;38.952;2023-10-31T07:10:29;11.00;;;5.15;;
83595;SDS011;73564;45.026;38.952;2023-10-31T07:12:55;9.30;;;4.80;;
83595;SDS011;73564;45.026;38.952;2023-10-31T07:15:21;11.25;;;4.72;;
83595;SDS011;73564;45.026;38.952;2023-10-31T07:17:46;14.00;;;4.97;;
83595;SDS011;73564;45.026;38.952;2023-10-31T07:20:13;14.68;;;5.20;;
83595;SDS011;73564;45.026;38.952;2023-10-31T07:22:39;14.55;;;5.18;;
83595;SDS011;73564;45.026;38.952;2023-10-31T07:25:05;10.00;;;5.22;;
83595;SDS011;73564;45.026;38.952;2023-10-31T07:27:32;9.60;;;4.18;;
83595;SDS011;73564;45.026;38.952;2023-10-31T07:29:58;12.10;;;5.20;;
83595;SDS011;73564;45.026;38.952;2023-10-31T07:32:24;9.88;;;5.20;;
83595;SDS011;73564;45.026;38.952;2023-10-31T07:34:51;9.85;;;4.78;;
83595;SDS011;73564;45.026;38.952;2023-10-31T07:37:17;14.40;;;5.60;;
83595;SDS011;73564;45.026;38.952;2023-10-31T07:39:42;12.65;;;4.93;;
83595;SDS011;73564;45.026;38.952;2023-10-31T07:42:08;15.20;;;6.03;;
83595;SDS011;73564;45.026;38.952;2023-10-31T07:44:34;15.13;;;6.20;;
83595;SDS011;73564;45.026;38.952;2023-10-31T07:47:00;19.42;;;7.38;;
83595;SDS011;73564;45.026;38.952;2023-10-31T07:49:26;12.05;;;7.05;;
83595;SDS011;73564;45.026;38.952;2023-10-31T07:51:51;15.52;;;7.78;;
83595;SDS011;73564;45.026;38.952;2023-10-31T07:54:17;21.77;;;8.65;;
83595;SDS011;73564;45.026;38.952;2023-10-31T07:56:44;16.73;;;7.68;;
83595;SDS011;73564;45.026;38.952;2023-10-31T07:59:09;20.45;;;10.05;;
83595;SDS011;73564;45.026;38.952;2023-10-31T08:01:36;18.92;;;9.45;;
83595;SDS011;73564;45.026;38.952;2023-10-31T08:04:02;25.00;;;9.80;;
83595;SDS011;73564;45.026;38.952;2023-10-31T08:06:28;19.20;;;9.27;;
83595;SDS011;73564;45.026;38.952;2023-10-31T08:08:54;19.58;;;8.45;;
83595;SDS011;73564;45.026;38.952;2023-10-31T08:11:20;24.15;;;10.30;;
83595;SDS011;73564;45.026;38.952;2023-10-31T08:13:45;19.15;;;8.52;;
83595;SDS011;73564;45.026;38.952;2023-10-31T08:16:16;26.90;;;10.65;;
83595;SDS011;73564;45.026;38.952;2023-10-31T08:18:43;19.08;;;8.48;;
83595;SDS011;73564;45.026;38.952;2023-10-31T08:21:09;19.10;;;9.05;;
83595;SDS011;73564;45.026;38.952;2023-10-31T08:23:37;15.40;;;8.05;;
83595;SDS011;73564;45.026;38.952;2023-10-31T08:26:02;16.88;;;7.88;;
83595;SDS011;73564;45.026;38.952;2023-10-31T08:28:29;21.63;;;9.98;;
83595;SDS011;73564;45.026;38.952;2023-10-31T08:30:55;22.27;;;8.82;;
83595;SDS011;73564;45.026;38.952;2023-10-31T08:33:21;17.73;;;8.07;;
83595;SDS011;73564;45.026;38.952;2023-10-31T08:35:46;14.95;;;8.55;;
83595;SDS011;73564;45.026;38.952;2023-10-31T08:38:13;17.95;;;7.90;;
83595;SDS011;73564;45.026;38.952;2023-10-31T08:40:39;20.52;;;8.10;;
83595;SDS011;73564;45.026;38.952;2023-10-31T08:43:04;21.10;;;8.50;;
83595;SDS011;73564;45.026;38.952;2023-10-31T08:45:32;15.50;;;8.13;;
83595;SDS011;73564;45.026;38.952;2023-10-31T08:47:58;21.10;;;9.32;;
83595;SDS011;73564;45.026;38.952;2023-10-31T08:50:24;14.95;;;8.80;;
83595;SDS011;73564;45.026;38.952;2023-10-31T08:52:50;18.75;;;8.63;;
83595;SDS011;73564;45.026;38.952;2023-10-31T08:55:16;17.75;;;8.38;;
83595;SDS011;73564;45.026;38.952;2023-10-31T08:57:42;21.50;;;9.20;;
83595;SDS011;73564;45.026;38.952;2023-10-31T09:00:08;18.75;;;8.73;;
83595;SDS011;73564;45.026;38.952;2023-10-31T09:02:34;19.05;;;8.70;;
83595;SDS011;73564;45.026;38.952;2023-10-31T09:04:59;20.90;;;8.15;;
83595;SDS011;73564;45.026;38.952;2023-10-31T09:07:25;17.38;;;8.35;;
83595;SDS011;73564;45.026;38.952;2023-10-31T09:09:52;18.35;;;8.63;;
83595;SDS011;73564;45.026;38.952;2023-10-31T09:12:17;22.42;;;8.57;;
83595;SDS011;73564;45.026;38.952;2023-10-31T09:14:43;17.17;;;7.28;;
83595;SDS011;73564;45.026;38.952;2023-10-31T09:17:09;19.92;;;9.45;;
83595;SDS011;73564;45.026;38.952;2023-10-31T09:19:35;20.13;;;8.57;;
83595;SDS011;73564;45.026;38.952;2023-10-31T09:22:00;19.23;;;8.45;;
83595;SDS011;73564;45.026;38.952;2023-10-31T09:24:26;19.17;;;7.82;;
83595;SDS011;73564;45.026;38.952;2023-10-31T09:26:52;18.50;;;8.55;;
83595;SDS011;73564;45.026;38.952;2023-10-31T09:29:17;19.65;;;8.40;;
83595;SDS011;73564;45.026;38.952;2023-10-31T09:31:44;22.33;;;8.32;;
83595;SDS011;73564;45.026;38.952;2023-10-31T09:34:09;20.15;;;9.70;;
83595;SDS011;73564;45.026;38.952;2023-10-31T09:36:35;25.48;;;10.80;;
83595;SDS011;73564;45.026;38.952;2023-10-31T09:39:01;18.85;;;9.10;;
83595;SDS011;73564;45.026;38.952;2023-10-31T09:41:27;22.60;;;9.95;;
83595;SDS011;73564;45.026;38.952;2023-10-31T09:43:53;24.45;;;10.73;;
83595;SDS011;73564;45.026;38.952;2023-10-31T09:46:20;26.95;;;11.88;;
83595;SDS011;73564;45.026;38.952;2023-10-31T09:48:46;18.05;;;10.52;;
83595;SDS011;73564;45.026;38.952;2023-10-31T09:51:14;23.45;;;11.15;;
83595;SDS011;73564;45.026;38.952;2023-10-31T09:53:40;25.73;;;10.90;;
83595;SDS011;73564;45.026;38.952;2023-10-31T09:56:08;24.48;;;10.00;;
83595;SDS011;73564;45.026;38.952;2023-10-31T09:58:34;28.23;;;14.05;;
83595;SDS011;73564;45.026;38.952;2023-10-31T10:01:00;19.48;;;8.95;;
83595;SDS011;73564;45.026;38.952;2023-10-31T10:03:27;91.22;;;36.10;;
83595;SDS011;73564;45.026;38.952;2023-10-31T10:05:53;20.52;;;10.05;;
83595;SDS011;73564;45.026;38.952;2023-10-31T10:08:22;27.55;;;11.05;;
83595;SDS011;73564;45.026;38.952;2023-10-31T10:10:48;19.02;;;10.05;;
83595;SDS011;73564;45.026;38.952;2023-10-31T10:15:47;18.88;;;9.15;;
83595;SDS011;73564;45.026;38.952;2023-10-31T10:18:32;18.92;;;9.82;;
83595;SDS011;73564;45.026;38.952;2023-10-31T10:21:03;18.20;;;8.50;;
83595;SDS011;73564;45.026;38.952;2023-10-31T10:23:31;19.58;;;10.18;;
83595;SDS011;73564;45.026;38.952;2023-10-31T10:25:57;19.25;;;9.30;;
83595;SDS011;73564;45.026;38.952;2023-10-31T10:28:24;15.05;;;8.73;;
83595;SDS011;73564;45.026;38.952;2023-10-31T10:30:50;20.48;;;9.93;;
83595;SDS011;73564;45.026;38.952;2023-10-31T10:33:17;23.88;;;10.23;;
83595;SDS011;73564;45.026;38.952;2023-10-31T10:35:43;25.63;;;11.45;;
83595;SDS011;73564;45.026;38.952;2023-10-31T10:38:10;29.10;;;12.30;;
83595;SDS011;73564;45.026;38.952;2023-10-31T10:40:40;22.50;;;12.32;;
83595;SDS011;73564;45.026;38.952;2023-10-31T10:43:10;30.27;;;13.50;;
83595;SDS011;73564;45.026;38.952;2023-10-31T10:45:39;37.85;;;17.13;;
83595;SDS011;73564;45.026;38.952;2023-10-31T10:48:12;30.65;;;13.73;;
83595;SDS011;73564;45.026;38.952;2023-10-31T10:50:41;37.58;;;16.80;;
83595;SDS011;73564;45.026;38.952;2023-10-31T10:55:51;24.15;;;11.95;;
83595;SDS011;73564;45.026;38.952;2023-10-31T10:58:21;28.65;;;12.45;;
83595;SDS011;73564;45.026;38.952;2023-10-31T11:00:48;26.83;;;12.63;;
83595;SDS011;73564;45.026;38.952;2023-10-31T11:03:16;25.10;;;10.45;;
83595;SDS011;73564;45.026;38.952;2023-10-31T11:05:44;24.30;;;9.75;;
83595;SDS011;73564;45.026;38.952;2023-10-31T11:08:11;25.42;;;10.18;;
83595;SDS011;73564;45.026;38.952;2023-10-31T11:10:37;25.20;;;9.32;;
83595;SDS011;73564;45.026;38.952;2023-10-31T11:13:04;24.40;;;9.73;;
83595;SDS011;73564;45.026;38.952;2023-10-31T11:15:30;22.38;;;11.10;;
83595;SDS011;73564;45.026;38.952;2023-10-31T11:17:56;25.67;;;8.70;;
83595;SDS011;73564;45.026;38.952;2023-10-31T11:20:23;16.95;;;7.68;;
83595;SDS011;73564;45.026;38.952;2023-10-31T11:22:54;23.83;;;7.57;;
83595;SDS011;73564;45.026;38.952;2023-10-31T11:25:25;14.68;;;7.20;;
83595;SDS011;73564;45.026;38.952;2023-10-31T11:27:51;22.10;;;5.90;;
83595;SDS011;73564;45.026;38.952;2023-10-31T11:30:21;13.77;;;5.63;;
83595;SDS011;73564;45.026;38.952;2023-10-31T11:32:53;12.38;;;4.70;;
83595;SDS011;73564;45.026;38.952;2023-10-31T11:35:23;15.27;;;4.60;;
83595;SDS011;73564;45.026;38.952;2023-10-31T11:37:50;13.27;;;4.40;;
83595;SDS011;73564;45.026;38.952;2023-10-31T11:40:28;13.93;;;4.47;;
83595;SDS011;73564;45.026;38.952;2023-10-31T11:42:58;12.00;;;4.15;;
83595;SDS011;73564;45.026;38.952;2023-10-31T11:52:59;14.00;;;5.63;;
83595;SDS011;73564;45.026;38.952;2023-10-31T11:55:31;10.02;;;4.28;;
83595;SDS011;73564;45.026;38.952;2023-10-31T11:58:16;11.32;;;3.90;;
83595;SDS011;73564;45.026;38.952;2023-10-31T12:00:43;14.95;;;4.75;;
83595;SDS011;73564;45.026;38.952;2023-10-31T12:03:10;14.25;;;4.65;;
83595;SDS011;73564;45.026;38.952;2023-10-31T12:05:36;13.63;;;4.65;;
83595;SDS011;73564;45.026;38.952;2023-10-31T12:08:02;12.32;;;4.95;;
83595;SDS011;73564;45.026;38.952;2023-10-31T12:10:28;17.30;;;5.15;;
83595;SDS011;73564;45.026;38.952;2023-10-31T12:12:58;16.10;;;4.95;;
83595;SDS011;73564;45.026;38.952;2023-10-31T12:15:27;14.38;;;5.30;;
83595;SDS011;73564;45.026;38.952;2023-10-31T12:17:57;11.45;;;5.10;;
83595;SDS011;73564;45.026;38.952;2023-10-31T12:20:24;15.35;;;5.35;;
83595;SDS011;73564;45.026;38.952;2023-10-31T12:23:00;12.35;;;4.78;;
83595;SDS011;73564;45.026;38.952;2023-10-31T12:25:27;15.77;;;5.72;;
83595;SDS011;73564;45.026;38.952;2023-10-31T12:27:53;14.70;;;5.18;;
83595;SDS011;73564;45.026;38.952;2023-10-31T12:30:22;12.90;;;5.25;;
83595;SDS011;73564;45.026;38.952;2023-10-31T12:32:54;24.02;;;10.05;;
83595;SDS011;73564;45.026;38.952;2023-10-31T12:35:23;19.33;;;8.43;;
83595;SDS011;73564;45.026;38.952;2023-10-31T12:37:50;17.40;;;7.60;;
83595;SDS011;73564;45.026;38.952;2023-10-31T12:40:16;30.05;;;11.68;;
83595;SDS011;73564;45.026;38.952;2023-10-31T12:42:44;15.70;;;8.07;;
83595;SDS011;73564;45.026;38.952;2023-10-31T12:45:14;14.20;;;7.38;;
83595;SDS011;73564;45.026;38.952;2023-10-31T12:47:40;8.27;;;5.35;;
83595;SDS011;73564;45.026;38.952;2023-10-31T12:50:07;10.45;;;4.88;;
83595;SDS011;73564;45.026;38.952;2023-10-31T12:52:50;14.60;;;4.25;;
83595;SDS011;73564;45.026;38.952;2023-10-31T12:55:21;11.20;;;3.03;;
83595;SDS011;73564;45.026;38.952;2023-10-31T12:57:48;12.60;;;4.13;;
83595;SDS011;73564;45.026;38.952;2023-10-31T13:00:16;9.95;;;4.07;;
83595;SDS011;73564;45.026;38.952;2023-10-31T13:02:49;9.13;;;3.35;;
83595;SDS011;73564;45.026;38.952;2023-10-31T13:05:16;14.55;;;6.90;;
83595;SDS011;73564;45.026;38.952;2023-10-31T13:07:49;11.63;;;4.13;;
83595;SDS011;73564;45.026;38.952;2023-10-31T13:10:16;9.63;;;4.15;;
83595;SDS011;73564;45.026;38.952;2023-10-31T13:12:46;8.30;;;3.88;;
83595;SDS011;73564;45.026;38.952;2023-10-31T13:15:12;10.90;;;3.78;;
83595;SDS011;73564;45.026;38.952;2023-10-31T13:17:39;8.98;;;3.70;;
83595;SDS011;73564;45.026;38.952;2023-10-31T13:20:07;12.75;;;4.20;;
83595;SDS011;73564;45.026;38.952;2023-10-31T13:22:37;12.23;;;5.72;;
83595;SDS011;73564;45.026;38.952;2023-10-31T13:25:04;14.45;;;4.55;;
83595;SDS011;73564;45.026;38.952;2023-10-31T13:27:33;12.18;;;5.18;;
83595;SDS011;73564;45.026;38.952;2023-10-31T13:30:01;11.38;;;6.13;;
83595;SDS011;73564;45.026;38.952;2023-10-31T13:37:18;12.90;;;4.18;;
83595;SDS011;73564;45.026;38.952;2023-10-31T13:39:44;12.75;;;4.43;;
83595;SDS011;73564;45.026;38.952;2023-10-31T13:42:11;9.25;;;4.35;;
83595;SDS011;73564;45.026;38.952;2023-10-31T13:44:37;10.98;;;4.18;;
83595;SDS011;73564;45.026;38.952;2023-10-31T13:47:03;12.35;;;4.53;;
83595;SDS011;73564;45.026;38.952;2023-10-31T13:49:29;10.95;;;4.10;;
83595;SDS011;73564;45.026;38.952;2023-10-31T13:51:54;15.57;;;4.30;;
83595;SDS011;73564;45.026;38.952;2023-10-31T13:54:20;11.55;;;4.30;;
83595;SDS011;73564;45.026;38.952;2023-10-31T13:56:47;12.50;;;4.50;;
83595;SDS011;73564;45.026;38.952;2023-10-31T13:59:13;15.60;;;4.68;;
83595;SDS011;73564;45.026;38.952;2023-10-31T14:01:39;14.02;;;4.53;;
83595;SDS011;73564;45.026;38.952;2023-10-31T14:04:09;13.20;;;5.18;;
83595;SDS011;73564;45.026;38.952;2023-10-31T14:06:35;12.10;;;5.07;;
83595;SDS011;73564;45.026;38.952;2023-10-31T14:09:02;16.95;;;4.82;;
83595;SDS011;73564;45.026;38.952;2023-10-31T14:11:30;14.73;;;5.03;;
83595;SDS011;73564;45.026;38.952;2023-10-31T14:13:56;11.75;;;4.78;;
83595;SDS011;73564;45.026;38.952;2023-10-31T14:16:31;13.60;;;4.82;;
83595;SDS011;73564;45.026;38.952;2023-10-31T14:18:59;15.00;;;5.32;;
83595;SDS011;73564;45.026;38.952;2023-10-31T14:21:27;12.68;;;4.78;;
83595;SDS011;73564;45.026;38.952;2023-10-31T14:23:52;12.07;;;4.22;;
83595;SDS011;73564;45.026;38.952;2023-10-31T14:26:22;18.15;;;5.43;;
83595;SDS011;73564;45.026;38.952;2023-10-31T14:28:48;16.77;;;5.05;;
83595;SDS011;73564;45.026;38.952;2023-10-31T14:31:14;21.02;;;5.15;;
83595;SDS011;73564;45.026;38.952;2023-10-31T14:36:07;15.85;;;4.95;;
83595;SDS011;73564;45.026;38.952;2023-10-31T14:38:35;15.75;;;5.00;;
83595;SDS011;73564;45.026;38.952;2023-10-31T14:41:01;21.45;;;5.65;;